createdAt,value
2019-04-10T00:00:55.831Z,46.12
2019-04-10T00:03:31.753Z,46.15
2019-04-10T00:05:50.740Z,45.55
2019-04-10T00:08:17.883Z,46.29
2019-04-10T00:10:44.534Z,46.15
2019-04-10T00:13:12.085Z,46.51
2019-04-10T00:15:38.777Z,46.43
2019-04-10T00:18:05.404Z,46.06
2019-04-10T00:20:32.266Z,46.42
2019-04-10T00:22:59.023Z,46.51
2019-04-10T00:25:26.523Z,46.66
2019-04-10T00:27:53.188Z,46.69
2019-04-10T00:30:20.738Z,46.07
2019-04-10T00:32:48.078Z,46.38
2019-04-10T00:35:15.071Z,46.57
2019-04-10T00:37:42.836Z,46.15
2019-04-10T00:40:09.547Z,46.26
2019-04-10T00:42:36.978Z,46.69
2019-04-10T00:45:03.952Z,46.80
2019-04-10T00:47:30.926Z,46.38
2019-04-10T00:49:57.946Z,46.92
2019-04-10T00:52:24.535Z,46.91
2019-04-10T00:54:51.132Z,46.32
2019-04-10T00:57:17.696Z,46.55
2019-04-10T00:59:44.273Z,46.17
2019-04-10T01:02:10.889Z,46.31
2019-04-10T01:04:38.195Z,46.45
2019-04-10T01:07:05.135Z,45.96
2019-04-10T01:09:31.710Z,46.23
2019-04-10T01:11:59.283Z,45.85
2019-04-10T01:14:26.053Z,46.09
2019-04-10T01:16:52.633Z,46.64
2019-04-10T01:19:19.643Z,46.83
2019-04-10T01:21:46.508Z,46.15
2019-04-10T01:24:13.222Z,46.82
2019-04-10T01:26:39.849Z,47.08
2019-04-10T01:29:06.433Z,46.55
2019-04-10T01:31:33.083Z,47.15
2019-04-10T01:33:59.644Z,47.25
2019-04-10T01:36:26.979Z,47.25
2019-04-10T01:38:53.802Z,47.06
2019-04-10T01:41:20.540Z,47.68
2019-04-10T01:43:47.193Z,47.82
2019-04-10T01:46:13.865Z,47.47
2019-04-10T01:48:40.414Z,48.12
2019-04-10T01:51:06.990Z,48.02
2019-04-10T01:53:33.652Z,48.28
2019-04-10T01:56:00.212Z,48.30
2019-04-10T01:58:27.345Z,48.54
2019-04-10T02:00:54.252Z,48.53
2019-04-10T02:03:21.033Z,48.60
2019-04-10T02:05:47.887Z,48.47
2019-04-10T02:08:17.187Z,47.99
2019-04-10T02:10:42.787Z,48.40
2019-04-10T02:13:09.464Z,48.44
2019-04-10T02:15:36.346Z,48.70
2019-04-10T02:18:03.284Z,48.47
2019-04-10T02:20:30.001Z,48.64
2019-04-10T02:22:56.575Z,48.88
2019-04-10T02:25:24.011Z,49.10
2019-04-10T02:27:50.894Z,48.56
2019-04-10T02:30:19.586Z,48.44
2019-04-10T02:32:48.002Z,49.05
2019-04-10T02:35:17.306Z,48.54
2019-04-10T02:37:43.400Z,48.83
2019-04-10T02:40:10.854Z,48.82
2019-04-10T02:42:38.720Z,48.35
2019-04-10T02:45:06.024Z,48.36
2019-04-10T02:47:32.807Z,49.07
2019-04-10T02:50:00.704Z,48.90
2019-04-10T02:52:28.377Z,49.25
2019-04-10T02:54:57.698Z,48.99
2019-04-10T02:57:25.496Z,48.99
2019-04-10T02:59:53.777Z,49.07
2019-04-10T03:02:21.959Z,49.82
2019-04-10T03:04:49.100Z,49.06
2019-04-10T03:07:15.959Z,49.88
2019-04-10T03:09:56.318Z,49.43
2019-04-10T03:12:12.996Z,49.56
2019-04-10T03:14:41.484Z,49.21
2019-04-10T03:17:08.088Z,50.01
2019-04-10T03:19:35.807Z,50.26
2019-04-10T03:22:02.430Z,50.07
2019-04-10T03:24:29.492Z,49.24
2019-04-10T03:26:56.239Z,49.12
2019-04-10T03:29:23.832Z,49.50
2019-04-10T03:31:52.960Z,49.23
2019-04-10T03:34:21.838Z,49.37
2019-04-10T03:36:47.568Z,49.45
2019-04-10T03:39:15.350Z,49.45
2019-04-10T03:41:42.256Z,50.33
2019-04-10T03:44:08.912Z,50.54
2019-04-10T03:46:38.281Z,50.17
2019-04-10T03:49:03.838Z,50.10
2019-04-10T03:51:30.408Z,49.22
2019-04-10T03:53:56.973Z,49.04
2019-04-10T03:56:23.593Z,49.19
2019-04-10T03:58:50.163Z,48.86
2019-04-10T04:01:16.728Z,50.22
2019-04-10T04:03:43.310Z,50.16
2019-04-10T04:06:11.077Z,50.47
2019-04-10T04:08:37.748Z,50.61
2019-04-10T04:11:04.902Z,50.40
2019-04-10T04:13:31.751Z,49.62
2019-04-10T04:15:58.329Z,49.27
2019-04-10T04:18:24.964Z,49.37
2019-04-10T04:20:51.570Z,49.08
2019-04-10T04:23:19.308Z,49.92
2019-04-10T04:25:46.255Z,49.84
2019-04-10T04:28:12.871Z,50.40
2019-04-10T04:30:40.422Z,50.12
2019-04-10T04:33:07.136Z,50.82
2019-04-10T04:35:34.612Z,50.14
2019-04-10T04:38:01.297Z,49.43
2019-04-10T04:40:27.978Z,49.67
2019-04-10T04:42:55.605Z,49.89
2019-04-10T04:45:22.255Z,50.45
2019-04-10T04:47:48.822Z,49.52
2019-04-10T04:50:15.704Z,49.78
2019-04-10T04:52:43.442Z,49.10
2019-04-10T04:55:10.149Z,49.35
2019-04-10T04:57:39.156Z,49.91
2019-04-10T05:00:06.115Z,49.14
2019-04-10T05:02:32.902Z,48.94
2019-04-10T05:05:00.402Z,49.28
2019-04-10T05:07:27.177Z,48.95
2019-04-10T05:09:53.788Z,48.93
2019-04-10T05:12:20.377Z,48.85
2019-04-10T05:14:48.115Z,49.26
2019-04-10T05:17:16.604Z,49.17
2019-04-10T05:19:43.087Z,48.91
2019-04-10T05:22:10.213Z,49.06
2019-04-10T05:24:36.822Z,48.86
2019-04-10T05:27:03.587Z,48.56
2019-04-10T05:29:31.170Z,49.11
2019-04-10T05:31:58.740Z,48.71
2019-04-10T05:34:25.539Z,48.78
2019-04-10T05:36:52.228Z,48.72
2019-04-10T05:39:19.096Z,48.21
2019-04-10T05:41:46.883Z,48.67
2019-04-10T05:44:13.704Z,48.29
2019-04-10T05:46:40.931Z,48.61
2019-04-10T05:49:08.416Z,48.14
2019-04-10T05:51:35.378Z,48.42
2019-04-10T05:54:02.316Z,48.24
2019-04-10T05:56:29.928Z,48.20
2019-04-10T05:58:56.750Z,48.06
2019-04-10T06:01:33.218Z,48.10
2019-04-10T06:03:52.592Z,47.92
2019-04-10T06:06:20.071Z,47.88
2019-04-10T06:08:47.090Z,48.13
2019-04-10T06:11:15.078Z,47.92
2019-04-10T06:13:42.925Z,47.97
2019-04-10T06:16:09.811Z,47.79
2019-04-10T06:18:37.473Z,47.96
2019-04-10T06:21:05.112Z,47.76
2019-04-10T06:23:31.857Z,47.53
2019-04-10T06:25:58.483Z,47.39
2019-04-10T06:28:26.200Z,47.54
2019-04-10T06:30:54.411Z,47.66
2019-04-10T06:33:22.139Z,47.38
2019-04-10T06:35:49.036Z,47.43
2019-04-10T06:38:16.801Z,47.48
2019-04-10T06:40:44.007Z,47.32
2019-04-10T06:43:10.707Z,47.24
2019-04-10T06:45:37.333Z,46.95
2019-04-10T06:48:03.907Z,46.91
2019-04-10T06:50:31.558Z,46.80
2019-04-10T06:52:58.881Z,46.34
2019-04-10T06:55:25.598Z,46.28
2019-04-10T06:57:56.308Z,45.93
2019-04-10T07:00:21.367Z,45.45
2019-04-10T07:02:48.061Z,44.93
2019-04-10T07:05:15.017Z,44.43
2019-04-10T07:07:50.690Z,44.15
2019-04-10T07:10:22.756Z,44.09
2019-04-10T07:12:39.712Z,43.59
2019-04-10T07:15:06.474Z,43.32
2019-04-10T07:17:38.380Z,43.28
2019-04-10T07:20:01.960Z,43.04
2019-04-10T07:22:28.987Z,42.98
2019-04-10T07:24:56.465Z,42.66
2019-04-10T07:27:23.694Z,42.67
2019-04-10T07:29:52.332Z,42.72
2019-04-10T07:32:19.450Z,42.64
2019-04-10T07:34:46.735Z,42.30
2019-04-10T07:37:17.732Z,42.17
2019-04-10T07:39:44.408Z,42.05
2019-04-10T07:42:10.011Z,41.99
2019-04-10T07:44:36.587Z,41.91
2019-04-10T07:49:41.838Z,42.77
2019-04-10T07:52:08.654Z,42.74
2019-04-10T07:54:35.221Z,42.50
2019-04-10T07:57:02.141Z,42.11
2019-04-10T07:59:29.225Z,41.68
2019-04-10T08:01:56.019Z,41.23
2019-04-10T08:04:22.665Z,41.02
2019-04-10T08:06:50.212Z,41.42
2019-04-10T08:09:16.860Z,40.92
2019-04-10T08:11:44.697Z,41.12
2019-04-10T08:14:12.661Z,40.74
2019-04-10T08:16:39.481Z,40.78
2019-04-10T08:19:06.180Z,40.49
2019-04-10T08:21:32.846Z,40.40
2019-04-10T08:24:00.347Z,40.47
2019-04-10T08:26:28.109Z,40.36
2019-04-10T08:28:54.875Z,40.28
2019-04-10T08:31:22.810Z,40.16
2019-04-10T08:33:50.465Z,40.12
2019-04-10T08:36:17.289Z,40.17
2019-04-10T08:38:43.912Z,40.18
2019-04-10T08:41:10.724Z,39.41
2019-04-10T08:43:37.580Z,39.32
2019-04-10T08:46:05.216Z,38.80
2019-04-10T08:48:33.037Z,39.26
2019-04-10T08:51:00.955Z,38.61
2019-04-10T08:53:28.594Z,38.67
2019-04-10T08:55:55.385Z,39.48
2019-04-10T08:58:22.959Z,39.27
2019-04-10T09:00:51.169Z,39.37
2019-04-10T09:03:18.989Z,39.15
2019-04-10T09:05:45.646Z,39.37
2019-04-10T09:08:12.836Z,39.09
2019-04-10T09:10:40.638Z,38.47
2019-04-10T09:13:08.381Z,37.92
2019-04-10T09:15:36.061Z,38.14
2019-04-10T09:18:03.967Z,37.81
2019-04-10T09:20:30.979Z,37.90
2019-04-10T09:23:15.437Z,37.26
2019-04-10T09:25:26.992Z,36.59
2019-04-10T09:27:53.968Z,36.81
2019-04-10T09:30:20.598Z,36.95
2019-04-10T09:32:47.174Z,36.59
2019-04-10T09:35:14.795Z,36.72
2019-04-10T09:37:42.071Z,35.76
2019-04-10T09:40:08.892Z,36.08
2019-04-10T09:42:35.530Z,35.76
2019-04-10T09:45:02.682Z,35.90
2019-04-10T09:47:30.334Z,36.23
2019-04-10T09:49:57.696Z,36.23
2019-04-10T09:52:24.390Z,36.14
2019-04-10T09:54:51.064Z,36.15
2019-04-10T09:57:17.898Z,35.77
2019-04-10T09:59:45.736Z,35.65
2019-04-10T10:02:13.245Z,34.90
2019-04-10T10:04:39.865Z,34.75
2019-04-10T10:07:06.443Z,33.69
2019-04-10T10:09:33.053Z,33.54
2019-04-10T10:11:59.629Z,32.47
2019-04-10T10:14:26.576Z,32.54
2019-04-10T10:16:53.306Z,31.72
2019-04-10T10:19:21.668Z,32.98
2019-04-10T10:21:48.545Z,31.57
2019-04-10T10:24:16.264Z,31.52
2019-04-10T10:26:45.027Z,30.48
2019-04-10T10:29:11.382Z,30.80
2019-04-10T10:31:38.076Z,31.16
2019-04-10T10:34:05.942Z,31.19
2019-04-10T10:36:39.348Z,30.23
2019-04-10T10:39:06.870Z,30.56
2019-04-10T10:41:29.878Z,30.72
2019-04-10T10:43:56.592Z,31.73
2019-04-10T10:46:23.166Z,31.12
2019-04-10T10:48:49.803Z,31.45
2019-04-10T10:51:16.409Z,31.59
2019-04-10T10:53:44.015Z,31.71
2019-04-10T10:56:11.845Z,31.95
2019-04-10T10:58:39.661Z,32.29
2019-04-10T11:01:07.349Z,32.64
2019-04-10T11:03:34.187Z,32.46
2019-04-10T11:06:00.753Z,32.61
2019-04-10T11:08:27.366Z,32.59
2019-04-10T11:10:56.040Z,32.61
2019-04-10T11:13:22.607Z,32.67
2019-04-10T11:15:49.972Z,32.96
2019-04-10T11:18:18.008Z,32.64
2019-04-10T11:20:44.776Z,32.78
2019-04-10T11:23:12.086Z,32.42
2019-04-10T11:25:39.918Z,32.58
2019-04-10T11:28:07.691Z,31.90
2019-04-10T11:30:34.603Z,32.00
2019-04-10T11:33:02.584Z,32.14
2019-04-10T11:35:29.371Z,31.91
2019-04-10T11:38:00.478Z,31.73
2019-04-10T11:40:26.724Z,31.92
2019-04-10T11:42:54.208Z,31.76
2019-04-10T11:45:23.025Z,30.93
2019-04-10T11:47:51.306Z,31.21
2019-04-10T11:50:18.758Z,30.52
2019-04-10T11:52:52.204Z,30.43
2019-04-10T11:57:45.878Z,30.52
2019-04-10T12:02:39.572Z,30.34
2019-04-10T12:05:11.080Z,30.25
2019-04-10T12:12:32.009Z,30.93
2019-04-10T12:14:59.671Z,31.07
2019-04-10T12:17:26.341Z,31.58
2019-04-10T12:19:52.917Z,31.85
2019-04-10T12:22:19.673Z,32.04
2019-04-10T12:24:49.647Z,32.18
2019-04-10T12:27:14.738Z,32.57
2019-04-10T12:29:42.529Z,32.89
2019-04-10T12:32:09.319Z,33.00
2019-04-10T12:34:36.211Z,32.57
2019-04-10T12:37:02.946Z,32.57
2019-04-10T12:39:30.112Z,32.48
2019-04-10T12:41:57.539Z,32.50
2019-04-10T12:44:25.440Z,32.38
2019-04-10T12:46:53.256Z,32.57
2019-04-10T12:49:20.235Z,32.40
2019-04-10T12:51:46.811Z,31.98
2019-04-10T12:54:13.386Z,32.38
2019-04-10T12:56:40.205Z,32.78
2019-04-10T12:59:07.015Z,32.79
2019-04-10T13:01:33.576Z,32.66
2019-04-10T13:04:00.151Z,32.49
2019-04-10T13:06:26.733Z,32.49
2019-04-10T13:09:04.034Z,32.52
2019-04-10T13:11:22.555Z,32.43
2019-04-10T13:13:51.208Z,32.69
2019-04-10T13:16:18.224Z,32.78
2019-04-10T13:18:44.896Z,32.79
2019-04-10T13:21:12.477Z,33.12
2019-04-10T13:23:39.683Z,33.20
2019-04-10T13:26:09.044Z,33.39
2019-04-10T13:28:35.830Z,33.45
2019-04-10T13:31:03.578Z,33.65
2019-04-10T13:33:30.991Z,33.62
2019-04-10T13:35:57.709Z,33.45
2019-04-10T13:38:30.216Z,33.40
2019-04-10T13:40:52.599Z,33.57
2019-04-10T13:43:20.020Z,33.71
2019-04-10T13:45:46.794Z,33.67
2019-04-10T13:48:14.518Z,33.71
2019-04-10T13:50:41.263Z,33.82
2019-04-10T13:53:08.013Z,33.58
2019-04-10T13:55:34.642Z,33.76
2019-04-10T13:58:01.426Z,33.83
2019-04-10T14:00:28.132Z,33.92
2019-04-10T14:02:54.753Z,33.97
2019-04-10T14:05:21.970Z,33.94
2019-04-10T14:07:49.313Z,34.02
2019-04-10T14:10:16.166Z,34.07
2019-04-10T14:12:43.005Z,34.03
2019-04-10T14:15:09.856Z,34.10
2019-04-10T14:17:37.563Z,34.22
2019-04-10T14:20:04.759Z,34.33
2019-04-10T14:22:31.584Z,34.48
2019-04-10T14:24:58.971Z,34.59
2019-04-10T14:27:25.681Z,34.60
2019-04-10T14:29:52.283Z,34.65
2019-04-10T14:32:18.869Z,34.69
2019-04-10T14:34:45.498Z,34.69
2019-04-10T14:37:12.089Z,34.80
2019-04-10T14:39:39.561Z,34.80
2019-04-10T14:42:07.009Z,34.81
2019-04-10T14:44:34.755Z,34.79
2019-04-10T14:47:02.295Z,34.82
2019-04-10T14:49:29.325Z,34.81
2019-04-10T14:51:56.794Z,34.86
2019-04-10T14:54:23.843Z,35.05
2019-04-10T14:56:50.603Z,35.24
2019-04-10T14:59:17.827Z,35.21
2019-04-10T15:01:44.428Z,35.26
2019-04-10T15:04:11.017Z,35.25
2019-04-10T15:06:37.601Z,35.26
2019-04-10T15:09:04.186Z,35.22
2019-04-10T15:11:30.879Z,35.26
2019-04-10T15:13:57.524Z,35.14
2019-04-10T15:16:25.105Z,35.10
2019-04-10T15:18:52.078Z,35.10
2019-04-10T15:21:18.718Z,35.22
2019-04-10T15:23:45.285Z,35.31
2019-04-10T15:26:11.874Z,35.23
2019-04-10T15:28:39.482Z,35.30
2019-04-10T15:31:06.775Z,35.42
2019-04-10T15:33:33.579Z,35.53
2019-04-10T15:36:00.159Z,35.51
2019-04-10T15:38:27.152Z,35.82
2019-04-10T15:40:54.800Z,35.79
2019-04-10T15:43:23.570Z,35.89
2019-04-10T15:45:50.418Z,36.07
2019-04-10T15:48:17.152Z,36.09
2019-04-10T15:50:43.750Z,36.12
2019-04-10T15:53:10.391Z,36.35
2019-04-10T15:55:38.088Z,36.13
2019-04-10T15:58:04.809Z,36.41
2019-04-10T16:00:31.414Z,36.29
2019-04-10T16:02:57.991Z,36.45
2019-04-10T16:05:25.699Z,36.56
2019-04-10T16:07:53.131Z,36.55
2019-04-10T16:10:21.044Z,36.82
2019-04-10T16:12:47.878Z,36.73
2019-04-10T16:15:15.273Z,36.52
2019-04-10T16:17:42.002Z,36.87
2019-04-10T16:20:09.198Z,37.47
2019-04-10T16:22:35.920Z,38.53
2019-04-10T16:25:03.202Z,38.14
2019-04-10T16:27:30.688Z,38.25
2019-04-10T16:29:57.331Z,38.98
2019-04-10T16:32:24.446Z,39.03
2019-04-10T16:34:51.232Z,39.14
2019-04-10T16:37:18.708Z,39.23
2019-04-10T16:39:56.692Z,39.55
2019-04-10T16:42:14.703Z,39.32
2019-04-10T16:44:42.336Z,39.70
2019-04-10T16:47:10.153Z,39.58
2019-04-10T16:49:37.173Z,39.85
2019-04-10T16:52:04.941Z,39.95
2019-04-10T16:54:31.598Z,40.22
2019-04-10T16:56:58.324Z,39.99
2019-04-10T16:59:25.578Z,40.34
2019-04-10T17:01:53.239Z,40.48
2019-04-10T17:04:19.920Z,40.88
2019-04-10T17:06:46.520Z,40.62
2019-04-10T17:09:13.094Z,40.93
2019-04-10T17:11:40.887Z,40.68
2019-04-10T17:14:07.801Z,40.73
2019-04-10T17:16:34.559Z,40.91
2019-04-10T17:19:01.427Z,40.72
2019-04-10T17:21:30.647Z,40.85
2019-04-10T17:23:56.701Z,40.94
2019-04-10T17:26:24.627Z,40.93
2019-04-10T17:28:52.397Z,41.09
2019-04-10T17:31:19.245Z,41.34
2019-04-10T17:33:46.000Z,41.26
2019-04-10T17:36:12.832Z,41.21
2019-04-10T17:38:39.449Z,40.75
2019-04-10T17:41:07.204Z,41.16
2019-04-10T17:43:35.054Z,40.95
2019-04-10T17:46:02.770Z,41.33
2019-04-10T17:48:30.686Z,40.92
2019-04-10T17:50:57.855Z,41.25
2019-04-10T17:53:25.190Z,41.50
2019-04-10T17:55:51.987Z,41.19
2019-04-10T17:58:19.200Z,41.70
2019-04-10T18:00:47.171Z,41.31
2019-04-10T18:03:17.573Z,41.35
2019-04-10T18:05:42.575Z,41.25
2019-04-10T18:08:10.561Z,41.47
2019-04-10T18:10:44.691Z,41.18
2019-04-10T18:13:05.567Z,41.29
2019-04-10T18:15:32.460Z,41.38
2019-04-10T18:17:59.731Z,41.47
2019-04-10T18:20:26.626Z,41.24
2019-04-10T18:22:53.351Z,41.71
2019-04-10T18:25:20.188Z,41.51
2019-04-10T18:27:46.910Z,41.39
2019-04-10T18:30:14.120Z,41.44
2019-04-10T18:32:40.736Z,41.38
2019-04-10T18:35:07.296Z,41.67
2019-04-10T18:37:35.224Z,41.25
2019-04-10T18:40:03.231Z,41.58
2019-04-10T18:42:30.886Z,41.49
2019-04-10T18:44:57.617Z,41.44
2019-04-10T18:47:24.981Z,41.61
2019-04-10T18:49:51.778Z,41.48
2019-04-10T18:52:19.191Z,41.47
2019-04-10T18:54:45.823Z,41.34
2019-04-10T18:57:13.590Z,41.60
2019-04-10T18:59:40.684Z,41.75
2019-04-10T19:02:07.591Z,41.56
2019-04-10T19:04:34.825Z,41.51
2019-04-10T19:07:01.867Z,41.55
2019-04-10T19:09:28.812Z,41.62
2019-04-10T19:11:56.743Z,41.58
2019-04-10T19:14:24.675Z,41.65
2019-04-10T19:16:51.462Z,41.44
2019-04-10T19:19:18.526Z,41.55
2019-04-10T19:21:46.047Z,41.28
2019-04-10T19:24:14.217Z,41.34
2019-04-10T19:26:40.911Z,41.56
2019-04-10T19:29:07.565Z,41.39
2019-04-10T19:31:36.145Z,41.58
2019-04-10T19:34:03.237Z,41.30
2019-04-10T19:36:30.029Z,41.51
2019-04-10T19:38:57.822Z,41.57
2019-04-10T19:41:31.262Z,41.47
2019-04-10T19:43:52.890Z,41.67
2019-04-10T19:46:19.495Z,41.60
2019-04-10T19:48:48.963Z,41.48
2019-04-10T19:51:15.061Z,41.50
2019-04-10T19:53:43.621Z,41.89
2019-04-10T19:56:10.984Z,41.83
2019-04-10T19:58:38.503Z,41.66
2019-04-10T20:01:05.309Z,41.70
2019-04-10T20:03:32.112Z,41.67
2019-04-10T20:05:58.734Z,41.95
2019-04-10T20:08:25.887Z,41.93
2019-04-10T20:10:52.506Z,42.20
2019-04-10T20:13:19.117Z,42.15
2019-04-10T20:15:46.751Z,42.06
2019-04-10T20:18:14.652Z,41.78
2019-04-10T20:20:41.650Z,41.84
2019-04-10T20:23:08.322Z,41.69
2019-04-10T20:25:34.907Z,41.88
2019-04-10T20:28:02.543Z,41.91
2019-04-10T20:30:30.307Z,41.83
2019-04-10T20:32:56.877Z,41.62
2019-04-10T20:35:25.060Z,41.71
2019-04-10T20:37:51.816Z,41.92
2019-04-10T20:40:19.557Z,41.87
2019-04-10T20:42:46.743Z,41.68
2019-04-10T20:45:14.354Z,41.84
2019-04-10T20:47:41.407Z,41.69
2019-04-10T20:50:08.013Z,41.89
2019-04-10T20:52:34.685Z,41.79
2019-04-10T20:55:01.534Z,41.74
2019-04-10T20:57:28.295Z,41.62
2019-04-10T20:59:55.296Z,41.92
2019-04-10T21:02:22.297Z,41.56
2019-04-10T21:04:56.573Z,41.78
2019-04-10T21:07:17.264Z,41.66
2019-04-10T21:09:43.953Z,41.65
2019-04-10T21:12:13.619Z,41.70
2019-04-10T21:14:40.373Z,41.67
2019-04-10T21:17:07.030Z,41.61
2019-04-10T21:19:33.625Z,41.95
2019-04-10T21:22:00.225Z,41.67
2019-04-10T21:24:27.453Z,41.84
2019-04-10T21:26:54.839Z,41.96
2019-04-10T21:29:21.600Z,41.87
2019-04-10T21:31:48.349Z,41.86
2019-04-10T21:34:14.978Z,41.94
2019-04-10T21:36:41.545Z,41.84
2019-04-10T21:39:09.493Z,42.17
2019-04-10T21:41:36.888Z,42.03
2019-04-10T21:44:04.351Z,41.97
2019-04-10T21:46:30.993Z,42.13
2019-04-10T21:48:57.577Z,41.96
2019-04-10T21:51:25.377Z,41.80
2019-04-10T21:53:52.045Z,42.15
2019-04-10T21:56:18.713Z,42.15
2019-04-10T21:58:46.438Z,42.06
2019-04-10T22:01:13.558Z,42.04
2019-04-10T22:03:41.463Z,41.98
2019-04-10T22:06:09.289Z,41.97
2019-04-10T22:08:37.114Z,41.81
2019-04-10T22:11:04.357Z,42.15
2019-04-10T22:13:32.249Z,42.05
2019-04-10T22:15:59.680Z,41.88
2019-04-10T22:18:27.443Z,42.02
2019-04-10T22:20:54.253Z,42.02
2019-04-10T22:23:20.997Z,42.30
2019-04-10T22:25:48.000Z,42.22
2019-04-10T22:28:14.984Z,42.16
2019-04-10T22:30:41.935Z,42.50
2019-04-10T22:33:08.769Z,42.23
2019-04-10T22:35:35.704Z,42.38
2019-04-10T22:38:02.673Z,42.11
2019-04-10T22:40:29.419Z,42.32
2019-04-10T22:42:56.171Z,42.25
2019-04-10T22:45:24.685Z,42.21
2019-04-10T22:47:52.154Z,42.22
2019-04-10T22:50:19.023Z,42.15
2019-04-10T22:52:46.931Z,42.25
2019-04-10T22:55:13.730Z,42.32
2019-04-10T22:57:41.566Z,42.21
2019-04-10T23:00:08.553Z,42.21
2019-04-10T23:02:35.437Z,42.27
2019-04-10T23:05:02.331Z,42.36
2019-04-10T23:07:30.149Z,42.46
2019-04-10T23:09:56.977Z,42.49
2019-04-10T23:12:24.465Z,42.39
2019-04-10T23:14:51.206Z,42.48
2019-04-10T23:17:18.869Z,42.49
2019-04-10T23:19:46.534Z,42.70
2019-04-10T23:22:13.469Z,42.40
2019-04-10T23:24:40.178Z,42.50
2019-04-10T23:27:06.762Z,42.39
2019-04-10T23:29:33.331Z,42.70
2019-04-10T23:31:59.903Z,42.58
2019-04-10T23:34:26.478Z,42.61
2019-04-10T23:36:54.021Z,42.58
2019-04-10T23:39:21.788Z,42.72
2019-04-10T23:41:50.919Z,42.53
2019-04-10T23:44:16.895Z,42.59
2019-04-10T23:46:43.516Z,42.54
2019-04-10T23:49:11.156Z,42.42
2019-04-10T23:51:39.002Z,42.46
2019-04-10T23:54:05.793Z,42.71
2019-04-10T23:56:32.510Z,42.86
2019-04-10T23:58:59.323Z,42.79
